createdAt,value
2018-05-23T00:00:55.189Z,15.80
2018-05-23T00:03:23.497Z,15.80
2018-05-23T00:05:51.812Z,15.70
2018-05-23T00:08:20.999Z,15.60
2018-05-23T00:10:49.321Z,15.60
2018-05-23T00:13:19.197Z,15.50
2018-05-23T00:15:47.547Z,15.50
2018-05-23T00:18:16.733Z,15.40
2018-05-23T00:20:46.824Z,15.30
2018-05-23T00:23:15.151Z,15.30
2018-05-23T00:25:44.247Z,15.30
2018-05-23T00:28:12.561Z,15.30
2018-05-23T00:30:40.907Z,15.30
2018-05-23T00:33:10.102Z,15.20
2018-05-23T00:35:38.492Z,15.20
2018-05-23T00:38:06.940Z,15.20
2018-05-23T00:40:35.285Z,15.30
2018-05-23T00:43:03.612Z,15.30
2018-05-23T00:45:31.937Z,15.30
2018-05-23T00:48:00.234Z,15.30
2018-05-23T00:50:28.564Z,15.30
2018-05-23T00:52:56.904Z,15.30
2018-05-23T00:55:34.424Z,15.30
2018-05-23T00:58:02.738Z,15.30
2018-05-23T01:00:31.059Z,15.20
2018-05-23T01:02:59.376Z,15.20
2018-05-23T01:05:27.689Z,15.30
2018-05-23T01:07:57.868Z,15.30
2018-05-23T01:10:26.186Z,15.30
2018-05-23T01:12:54.514Z,15.30
2018-05-23T01:15:22.838Z,15.30
2018-05-23T01:17:51.161Z,15.20
2018-05-23T01:20:19.479Z,15.20
2018-05-23T01:22:47.794Z,15.10
2018-05-23T01:25:16.124Z,15.10
2018-05-23T01:27:44.444Z,15.10
2018-05-23T01:30:14.287Z,15.10
2018-05-23T01:32:42.617Z,15.10
2018-05-23T01:35:10.947Z,15.10
2018-05-23T01:37:39.243Z,15.10
2018-05-23T01:40:08.351Z,15.10
2018-05-23T01:42:36.665Z,15.10
2018-05-23T01:45:05.010Z,15.00
2018-05-23T01:47:34.117Z,15.00
2018-05-23T01:50:02.447Z,15.00
2018-05-23T01:52:30.870Z,15.10
2018-05-23T01:54:59.359Z,15.00
2018-05-23T01:57:28.457Z,15.00
2018-05-23T01:59:56.775Z,15.00
2018-05-23T02:02:25.107Z,15.00
2018-05-23T02:04:53.422Z,15.00
2018-05-23T02:07:21.821Z,15.00
2018-05-23T02:09:50.140Z,15.00
2018-05-23T02:12:18.478Z,15.00
2018-05-23T02:14:46.809Z,15.10
2018-05-23T02:17:15.139Z,15.10
2018-05-23T02:19:43.460Z,15.10
2018-05-23T02:22:11.800Z,15.10
2018-05-23T02:24:40.113Z,15.00
2018-05-23T02:27:08.411Z,15.00
2018-05-23T02:29:37.271Z,15.10
2018-05-23T02:32:05.571Z,15.10
2018-05-23T02:34:33.887Z,15.10
2018-05-23T02:37:02.212Z,15.10
2018-05-23T02:39:30.562Z,15.20
2018-05-23T02:41:59.645Z,15.20
2018-05-23T02:44:27.985Z,15.20
2018-05-23T02:46:56.396Z,15.30
2018-05-23T02:49:24.843Z,15.20
2018-05-23T02:51:53.155Z,15.20
2018-05-23T02:54:21.480Z,15.20
2018-05-23T02:56:51.323Z,15.20
2018-05-23T02:59:19.712Z,15.20
2018-05-23T03:01:48.020Z,15.20
2018-05-23T03:04:16.346Z,15.20
2018-05-23T03:06:44.701Z,15.20
2018-05-23T03:09:13.059Z,15.20
2018-05-23T03:11:41.371Z,15.30
2018-05-23T03:14:10.470Z,15.30
2018-05-23T03:16:38.799Z,15.30
2018-05-23T03:19:07.127Z,15.30
2018-05-23T03:21:35.447Z,15.40
2018-05-23T03:24:03.744Z,15.40
2018-05-23T03:26:32.067Z,15.40
2018-05-23T03:29:00.399Z,15.50
2018-05-23T03:31:28.724Z,15.50
2018-05-23T03:33:57.065Z,15.50
2018-05-23T03:36:25.371Z,15.60
2018-05-23T03:38:53.690Z,15.60
2018-05-23T03:41:21.992Z,15.60
2018-05-23T03:43:50.346Z,15.70
2018-05-23T03:46:19.080Z,15.70
2018-05-23T03:48:48.174Z,15.80
2018-05-23T03:51:16.487Z,15.70
2018-05-23T03:53:44.795Z,15.70
2018-05-23T03:56:13.111Z,15.80
2018-05-23T03:58:42.200Z,15.80
2018-05-23T04:01:21.846Z,15.70
2018-05-23T04:04:01.326Z,15.80
2018-05-23T04:06:44.419Z,15.80
2018-05-23T04:09:12.730Z,15.80
2018-05-23T04:11:41.052Z,15.90
2018-05-23T04:14:10.902Z,15.90
2018-05-23T04:16:39.230Z,15.90
2018-05-23T04:19:07.551Z,16.00
2018-05-23T04:21:36.661Z,16.00
2018-05-23T04:24:04.715Z,16.00
2018-05-23T04:26:33.142Z,16.10
2018-05-23T04:29:01.471Z,16.20
2018-05-23T04:31:29.535Z,16.20
2018-05-23T04:33:57.835Z,16.20
2018-05-23T04:36:26.142Z,16.20
2018-05-23T04:38:55.324Z,16.20
2018-05-23T04:41:23.643Z,16.20
2018-05-23T04:43:51.972Z,16.20
2018-05-23T04:46:20.315Z,16.20
2018-05-23T04:48:48.685Z,16.20
2018-05-23T04:51:17.159Z,16.10
2018-05-23T04:53:46.277Z,16.20
2018-05-23T04:56:14.599Z,16.20
2018-05-23T04:58:42.910Z,16.20
2018-05-23T05:01:11.253Z,16.20
2018-05-23T05:03:39.577Z,16.30
2018-05-23T05:06:07.894Z,16.30
2018-05-23T05:08:36.195Z,16.30
2018-05-23T05:11:04.434Z,16.30
2018-05-23T05:13:32.746Z,16.30
2018-05-23T05:16:01.074Z,16.30
2018-05-23T05:18:29.380Z,16.30
2018-05-23T05:20:58.484Z,16.40
2018-05-23T05:23:27.140Z,16.40
2018-05-23T05:25:55.452Z,16.40
2018-05-23T05:28:24.559Z,16.50
2018-05-23T05:30:52.883Z,16.50
2018-05-23T05:33:21.337Z,16.60
2018-05-23T05:35:49.643Z,16.60
2018-05-23T05:38:17.953Z,16.60
2018-05-23T05:40:46.308Z,16.60
2018-05-23T05:43:14.628Z,16.60
2018-05-23T05:45:43.729Z,16.70
2018-05-23T05:48:12.045Z,16.70
2018-05-23T05:50:40.387Z,16.70
2018-05-23T05:53:08.700Z,16.80
2018-05-23T05:55:37.788Z,16.80
2018-05-23T05:58:06.128Z,16.80
2018-05-23T06:03:01.315Z,16.90
2018-05-23T06:05:29.675Z,16.90
2018-05-23T06:07:57.996Z,17.00
2018-05-23T06:10:26.319Z,17.00
2018-05-23T06:12:54.634Z,17.10
2018-05-23T06:15:23.715Z,17.20
2018-05-23T06:17:52.022Z,17.20
2018-05-23T06:20:20.363Z,17.20
2018-05-23T06:22:48.833Z,17.30
2018-05-23T06:25:17.179Z,17.30
2018-05-23T06:27:45.599Z,17.30
2018-05-23T06:30:13.922Z,17.30
2018-05-23T06:32:42.225Z,17.40
2018-05-23T06:35:10.555Z,17.30
2018-05-23T06:37:38.889Z,17.40
2018-05-23T06:40:07.289Z,17.50
2018-05-23T06:42:35.607Z,17.50
2018-05-23T06:45:03.699Z,17.60
2018-05-23T06:47:32.019Z,17.60
2018-05-23T06:50:00.358Z,17.60
2018-05-23T06:52:28.879Z,17.70
2018-05-23T06:54:57.196Z,17.80
2018-05-23T06:57:25.512Z,17.80
2018-05-23T06:59:53.859Z,17.90
2018-05-23T07:02:22.185Z,17.90
2018-05-23T07:04:51.381Z,18.00
2018-05-23T07:07:19.717Z,18.00
2018-05-23T07:09:48.017Z,18.10
2018-05-23T07:12:16.339Z,18.10
2018-05-23T07:14:45.480Z,18.00
2018-05-23T07:17:13.813Z,18.00
2018-05-23T07:19:42.135Z,17.90
2018-05-23T07:22:10.453Z,17.80
2018-05-23T07:24:38.773Z,17.80
2018-05-23T07:27:07.890Z,17.60
2018-05-23T07:29:36.220Z,17.60
2018-05-23T07:32:04.218Z,17.60
2018-05-23T07:34:32.576Z,17.60
2018-05-23T07:37:00.900Z,17.60
2018-05-23T07:39:29.244Z,17.60
2018-05-23T07:41:58.345Z,17.70
2018-05-23T07:44:26.714Z,17.60
2018-05-23T07:46:55.035Z,17.70
2018-05-23T07:49:23.365Z,17.80
2018-05-23T07:51:51.675Z,17.80
2018-05-23T07:54:20.260Z,17.80
2018-05-23T07:56:48.575Z,17.80
2018-05-23T07:59:17.663Z,17.80
2018-05-23T08:01:46.011Z,17.80
2018-05-23T08:04:14.355Z,17.80
2018-05-23T08:06:43.431Z,17.70
2018-05-23T08:09:12.604Z,17.70
2018-05-23T08:11:40.945Z,17.60
2018-05-23T08:14:09.264Z,17.60
2018-05-23T08:16:37.567Z,17.60
2018-05-23T08:19:05.925Z,17.60
2018-05-23T08:21:34.245Z,17.50
2018-05-23T08:24:02.585Z,17.40
2018-05-23T08:26:30.655Z,17.40
2018-05-23T08:28:58.997Z,17.40
2018-05-23T08:31:28.080Z,17.30
2018-05-23T08:33:56.412Z,17.30
2018-05-23T08:36:25.597Z,17.40
2018-05-23T08:38:54.061Z,17.40
2018-05-23T08:41:22.366Z,17.50
2018-05-23T08:43:50.713Z,17.60
2018-05-23T08:46:19.051Z,17.80
2018-05-23T08:48:47.390Z,18.00
2018-05-23T08:51:15.696Z,18.30
2018-05-23T08:53:44.030Z,18.50
2018-05-23T08:56:12.346Z,18.70
2018-05-23T08:58:41.257Z,19.00
2018-05-23T09:01:10.161Z,19.30
2018-05-23T09:03:39.049Z,19.40
2018-05-23T09:06:07.973Z,19.60
2018-05-23T09:08:37.643Z,19.90
2018-05-23T09:11:07.328Z,20.10
2018-05-23T09:13:36.208Z,20.10
2018-05-23T09:16:05.121Z,20.40
2018-05-23T09:18:34.010Z,20.60
2018-05-23T09:21:02.880Z,20.70
2018-05-23T09:23:31.807Z,20.80
2018-05-23T09:26:00.150Z,21.10
2018-05-23T09:28:28.443Z,21.40
2018-05-23T09:30:57.322Z,21.60
2018-05-23T09:33:26.197Z,21.80
2018-05-23T09:35:55.063Z,22.00
2018-05-23T09:38:23.942Z,22.00
2018-05-23T09:40:52.816Z,22.00
2018-05-23T09:43:21.777Z,22.00
2018-05-23T09:45:50.679Z,22.00
2018-05-23T09:48:19.605Z,22.10
2018-05-23T09:50:48.473Z,22.20
2018-05-23T09:53:17.370Z,22.20
2018-05-23T09:55:46.266Z,22.20
2018-05-23T09:58:15.150Z,22.30
2018-05-23T10:00:44.033Z,22.50
2018-05-23T10:03:12.922Z,22.70
2018-05-23T10:05:41.808Z,22.60
2018-05-23T10:08:10.692Z,22.70
2018-05-23T10:10:39.620Z,22.70
2018-05-23T10:13:08.495Z,22.90
2018-05-23T10:15:37.592Z,23.00
2018-05-23T10:18:06.463Z,23.10
2018-05-23T10:20:35.368Z,23.10
2018-05-23T10:23:04.239Z,23.00
2018-05-23T10:25:33.137Z,22.70
2018-05-23T10:28:02.023Z,22.70
2018-05-23T10:30:30.906Z,22.70
2018-05-23T10:32:59.552Z,22.80
2018-05-23T10:35:28.104Z,22.80
2018-05-23T10:37:57.088Z,22.80
2018-05-23T10:40:26.774Z,22.90
2018-05-23T10:42:55.668Z,22.80
2018-05-23T10:45:24.567Z,22.90
2018-05-23T10:47:53.457Z,22.90
2018-05-23T10:50:22.315Z,22.90
2018-05-23T10:52:51.231Z,23.10
2018-05-23T10:55:20.111Z,23.10
2018-05-23T10:57:49.006Z,23.10
2018-05-23T11:00:17.908Z,23.10
2018-05-23T11:02:46.802Z,23.20
2018-05-23T11:05:15.896Z,23.10
2018-05-23T11:07:46.268Z,23.10
2018-05-23T11:10:15.160Z,23.40
2018-05-23T11:12:44.062Z,23.60
2018-05-23T11:15:13.054Z,23.70
2018-05-23T11:17:42.050Z,23.70
2018-05-23T11:20:11.653Z,23.80
2018-05-23T11:22:40.522Z,23.90
2018-05-23T11:25:09.403Z,24.00
2018-05-23T11:27:38.288Z,23.90
2018-05-23T11:30:07.180Z,24.10
2018-05-23T11:32:36.280Z,24.20
2018-05-23T11:35:04.846Z,24.20
2018-05-23T11:37:33.722Z,24.30
2018-05-23T11:40:02.593Z,24.40
2018-05-23T11:42:31.484Z,24.30
2018-05-23T11:45:00.410Z,24.30
2018-05-23T11:47:29.303Z,24.30
2018-05-23T11:49:58.175Z,24.20
2018-05-23T11:52:27.083Z,24.10
2018-05-23T11:54:55.987Z,24.10
2018-05-23T11:57:24.904Z,24.00
2018-05-23T11:59:53.952Z,23.80
2018-05-23T12:02:22.852Z,23.70
2018-05-23T12:04:51.719Z,23.60
2018-05-23T12:07:20.615Z,23.60
2018-05-23T12:09:49.471Z,23.60
2018-05-23T12:12:18.423Z,23.70
2018-05-23T12:14:47.303Z,23.70
2018-05-23T12:17:16.184Z,23.50
2018-05-23T12:19:44.796Z,23.50
2018-05-23T12:22:13.850Z,23.50
2018-05-23T12:24:42.783Z,23.50
2018-05-23T12:27:11.654Z,23.60
2018-05-23T12:29:40.531Z,23.60
2018-05-23T12:32:09.424Z,23.70
2018-05-23T12:34:38.339Z,23.80
2018-05-23T12:37:07.217Z,23.90
2018-05-23T12:39:36.129Z,24.00
2018-05-23T12:42:05.509Z,24.20
2018-05-23T12:44:34.078Z,24.40
2018-05-23T12:47:02.997Z,24.60
2018-05-23T12:49:31.890Z,24.80
2018-05-23T12:52:00.793Z,25.00
2018-05-23T12:54:29.711Z,25.10
2018-05-23T12:56:59.397Z,25.40
2018-05-23T12:59:28.297Z,25.30
2018-05-23T13:01:57.186Z,25.30
2018-05-23T13:04:26.105Z,25.20
2018-05-23T13:06:55.053Z,25.00
2018-05-23T13:09:23.960Z,24.90
2018-05-23T13:11:53.191Z,24.50
2018-05-23T13:14:22.833Z,24.10
2018-05-23T13:16:51.748Z,24.20
2018-05-23T13:19:20.662Z,24.10
2018-05-23T13:21:49.574Z,24.20
2018-05-23T13:24:18.485Z,24.10
2018-05-23T13:26:47.100Z,24.20
2018-05-23T13:29:15.985Z,24.30
2018-05-23T13:31:44.903Z,24.40
2018-05-23T13:34:13.848Z,24.50
2018-05-23T13:36:42.799Z,24.70
2018-05-23T13:39:11.703Z,24.90
2018-05-23T13:41:40.620Z,25.10
2018-05-23T13:44:09.512Z,25.30
2018-05-23T13:46:38.474Z,25.30
2018-05-23T13:49:07.380Z,25.40
2018-05-23T13:51:36.307Z,25.40
2018-05-23T13:54:04.887Z,25.40
2018-05-23T13:56:33.794Z,25.50
2018-05-23T13:59:02.704Z,25.50
2018-05-23T14:01:31.037Z,25.50
2018-05-23T14:03:59.940Z,25.60
2018-05-23T14:06:28.848Z,25.60
2018-05-23T14:08:57.788Z,25.50
2018-05-23T14:11:26.707Z,25.60
2018-05-23T14:13:55.639Z,25.70
2018-05-23T14:16:24.555Z,25.70
2018-05-23T14:18:53.486Z,25.70
2018-05-23T14:21:22.420Z,25.60
2018-05-23T14:23:51.325Z,25.70
2018-05-23T14:26:20.207Z,25.70
2018-05-23T14:28:49.121Z,25.70
2018-05-23T14:31:18.004Z,26.00
2018-05-23T14:33:46.921Z,26.00
2018-05-23T14:36:15.795Z,26.30
2018-05-23T14:38:44.692Z,26.40
2018-05-23T14:41:13.278Z,26.40
2018-05-23T14:43:42.242Z,26.50
2018-05-23T14:46:11.286Z,26.90
2018-05-23T14:48:39.875Z,27.20
2018-05-23T14:51:08.457Z,27.50
2018-05-23T14:53:36.503Z,27.50
2018-05-23T14:56:05.105Z,27.50
2018-05-23T14:58:33.726Z,27.70
2018-05-23T15:01:02.349Z,28.00
2018-05-23T15:03:30.942Z,28.20
2018-05-23T15:05:59.544Z,28.10
2018-05-23T15:08:28.234Z,28.10
2018-05-23T15:10:56.971Z,28.20
2018-05-23T15:13:25.587Z,28.50
2018-05-23T15:15:54.217Z,29.10
2018-05-23T15:18:22.799Z,29.60
2018-05-23T15:20:51.710Z,29.80
2018-05-23T15:23:19.727Z,29.10
2018-05-23T15:25:49.132Z,28.70
2018-05-23T15:28:17.732Z,28.70
2018-05-23T15:30:46.353Z,28.90
2018-05-23T15:33:14.933Z,29.50
2018-05-23T15:35:43.551Z,30.10
2018-05-23T15:38:12.164Z,30.60
2018-05-23T15:40:41.308Z,31.30
2018-05-23T15:43:09.909Z,31.20
2018-05-23T15:45:38.510Z,31.10
2018-05-23T15:48:07.127Z,31.30
2018-05-23T15:50:35.706Z,31.20
2018-05-23T15:53:04.313Z,31.20
2018-05-23T15:55:33.681Z,31.80
2018-05-23T15:58:02.469Z,31.70
2018-05-23T16:00:31.061Z,31.90
2018-05-23T16:02:59.699Z,32.60
2018-05-23T16:05:28.808Z,32.90
2018-05-23T16:07:57.422Z,32.90
2018-05-23T16:10:26.024Z,33.00
2018-05-23T16:12:54.622Z,32.50
2018-05-23T16:15:23.227Z,31.70
2018-05-23T16:17:52.623Z,29.90
2018-05-23T16:20:21.775Z,29.30
2018-05-23T16:22:50.377Z,29.20
2018-05-23T16:25:18.744Z,28.90
2018-05-23T16:27:47.416Z,28.40
2018-05-23T16:30:16.013Z,28.40
2018-05-23T16:32:44.689Z,28.50
2018-05-23T16:35:13.304Z,28.40
2018-05-23T16:37:41.906Z,28.10
2018-05-23T16:40:10.969Z,27.70
2018-05-23T16:42:39.867Z,27.20
2018-05-23T16:45:08.792Z,26.90
2018-05-23T16:47:37.696Z,26.80
2018-05-23T16:50:06.590Z,26.70
2018-05-23T16:52:35.463Z,26.70
2018-05-23T16:55:04.943Z,26.70
2018-05-23T16:57:34.173Z,26.60
2018-05-23T17:00:02.934Z,26.70
2018-05-23T17:02:31.852Z,26.80
2018-05-23T17:05:01.564Z,27.10
2018-05-23T17:07:30.593Z,27.10
2018-05-23T17:09:59.485Z,27.10
2018-05-23T17:12:28.431Z,26.90
2018-05-23T17:14:57.443Z,26.90
2018-05-23T17:17:26.381Z,26.90
2018-05-23T17:19:55.270Z,26.90
2018-05-23T17:22:24.157Z,26.70
2018-05-23T17:24:53.848Z,26.60
2018-05-23T17:27:22.815Z,26.50
2018-05-23T17:29:51.856Z,26.40
2018-05-23T17:32:21.504Z,25.90
2018-05-23T17:34:50.397Z,25.90
2018-05-23T17:37:19.300Z,25.80
2018-05-23T17:39:48.199Z,25.60
2018-05-23T17:42:17.111Z,25.50
2018-05-23T17:44:45.988Z,25.40
2018-05-23T17:47:14.879Z,25.30
2018-05-23T17:49:43.756Z,25.20
2018-05-23T17:52:12.778Z,25.10
2018-05-23T17:54:41.670Z,25.00
2018-05-23T17:57:10.546Z,24.90
2018-05-23T17:59:39.456Z,24.80
2018-05-23T18:02:08.402Z,24.80
2018-05-23T18:04:37.442Z,24.70
2018-05-23T18:07:06.085Z,24.70
2018-05-23T18:09:37.244Z,24.60
2018-05-23T18:12:06.830Z,24.50
2018-05-23T18:14:35.968Z,24.50
2018-05-23T18:17:05.898Z,24.30
2018-05-23T18:19:34.880Z,24.30
2018-05-23T18:22:03.535Z,24.30
2018-05-23T18:24:33.213Z,24.30
2018-05-23T18:27:02.156Z,24.20
2018-05-23T18:29:31.159Z,24.20
2018-05-23T18:32:00.188Z,24.10
2018-05-23T18:34:29.106Z,24.00
2018-05-23T18:36:58.121Z,23.90
2018-05-23T18:39:27.209Z,23.90
2018-05-23T18:41:56.131Z,23.80
2018-05-23T18:44:25.039Z,23.60
2018-05-23T18:46:53.065Z,23.60
2018-05-23T18:49:21.439Z,23.50
2018-05-23T18:51:50.576Z,23.40
2018-05-23T18:54:19.532Z,23.30
2018-05-23T18:56:49.704Z,23.20
2018-05-23T18:59:18.660Z,23.10
2018-05-23T19:01:50.775Z,23.00
2018-05-23T19:04:19.688Z,22.90
2018-05-23T19:06:51.725Z,22.90
2018-05-23T19:09:20.617Z,22.80
2018-05-23T19:11:49.572Z,22.80
2018-05-23T19:14:18.488Z,22.80
2018-05-23T19:16:47.354Z,22.70
2018-05-23T19:19:15.921Z,22.50
2018-05-23T19:21:44.865Z,22.50
2018-05-23T19:24:13.788Z,22.40
2018-05-23T19:26:42.772Z,22.30
2018-05-23T19:29:15.031Z,22.20
2018-05-23T19:31:44.163Z,22.20
2018-05-23T19:34:13.367Z,22.10
2018-05-23T19:36:42.157Z,22.00
2018-05-23T19:39:12.825Z,21.90
2018-05-23T19:41:42.191Z,21.90
2018-05-23T19:44:11.118Z,21.80
2018-05-23T19:46:40.026Z,21.70
2018-05-23T19:49:18.750Z,21.50
2018-05-23T19:51:48.642Z,21.40
2018-05-23T19:54:17.612Z,21.30
2018-05-23T19:56:46.542Z,21.20
2018-05-23T19:59:16.231Z,21.00
2018-05-23T20:01:45.133Z,20.90
2018-05-23T20:04:13.518Z,20.80
2018-05-23T20:06:42.425Z,20.70
2018-05-23T20:09:11.365Z,20.60
2018-05-23T20:11:40.252Z,20.50
2018-05-23T20:14:08.639Z,20.40
2018-05-23T20:16:38.447Z,20.30
2018-05-23T20:19:16.816Z,20.30
2018-05-23T20:21:45.137Z,20.20
2018-05-23T20:24:14.237Z,20.10
2018-05-23T20:26:42.592Z,20.00
2018-05-23T20:29:11.264Z,19.90
2018-05-23T20:31:39.740Z,19.80
2018-05-23T20:34:07.750Z,19.80
2018-05-23T20:36:36.169Z,19.70
2018-05-23T20:39:03.703Z,19.60
2018-05-23T20:41:32.789Z,19.60
2018-05-23T20:44:01.201Z,19.50
2018-05-23T20:46:33.433Z,19.40
2018-05-23T20:49:01.869Z,19.40
2018-05-23T20:51:30.300Z,19.30
2018-05-23T20:53:58.713Z,19.30
2018-05-23T20:56:27.100Z,19.20
2018-05-23T20:58:55.707Z,19.20
2018-05-23T21:01:24.356Z,19.20
2018-05-23T21:03:52.735Z,19.20
2018-05-23T21:06:21.057Z,19.20
2018-05-23T21:08:52.631Z,19.20
2018-05-23T21:11:20.383Z,19.20
2018-05-23T21:13:49.029Z,19.20
2018-05-23T21:16:17.397Z,19.10
2018-05-23T21:18:45.746Z,19.10
2018-05-23T21:21:14.864Z,19.10
2018-05-23T21:23:43.179Z,19.00
2018-05-23T21:26:11.531Z,19.10
2018-05-23T21:28:40.619Z,19.00
2018-05-23T21:31:09.752Z,19.00
2018-05-23T21:33:38.103Z,19.00
2018-05-23T21:36:06.443Z,19.10
2018-05-23T21:38:34.756Z,19.10
2018-05-23T21:41:03.079Z,19.00
2018-05-23T21:43:31.477Z,19.00
2018-05-23T21:45:59.801Z,19.00
2018-05-23T21:48:28.134Z,19.00
2018-05-23T21:50:56.470Z,19.00
2018-05-23T21:53:24.796Z,19.00
2018-05-23T21:55:53.114Z,18.90
2018-05-23T21:58:21.435Z,18.80
2018-05-23T22:00:49.548Z,18.80
2018-05-23T22:03:17.868Z,18.80
2018-05-23T22:05:47.875Z,18.80
2018-05-23T22:08:16.192Z,18.80
2018-05-23T22:10:44.504Z,18.70
2018-05-23T22:13:12.813Z,18.70
2018-05-23T22:15:41.133Z,18.60
2018-05-23T22:18:09.460Z,18.60
2018-05-23T22:20:37.801Z,18.60
2018-05-23T22:23:05.868Z,18.50
2018-05-23T22:25:34.165Z,18.50
2018-05-23T22:28:02.488Z,18.40
2018-05-23T22:30:30.854Z,18.40
2018-05-23T22:32:59.352Z,18.40
2018-05-23T22:35:27.680Z,18.30
2018-05-23T22:37:55.987Z,18.20
2018-05-23T22:40:25.137Z,18.20
2018-05-23T22:42:54.836Z,18.10
2018-05-23T22:45:23.178Z,18.10
2018-05-23T22:47:51.496Z,18.00
2018-05-23T22:50:19.848Z,18.00
2018-05-23T22:52:48.967Z,17.90
2018-05-23T22:55:17.292Z,17.90
2018-05-23T22:57:45.606Z,17.90
2018-05-23T23:00:16.704Z,17.80
2018-05-23T23:02:44.804Z,17.80
2018-05-23T23:05:13.115Z,17.80
2018-05-23T23:07:41.442Z,17.80
2018-05-23T23:10:09.747Z,17.70
2018-05-23T23:12:38.075Z,17.70
2018-05-23T23:15:06.395Z,17.60
2018-05-23T23:17:34.724Z,17.60
2018-05-23T23:20:03.850Z,17.50
2018-05-23T23:22:38.292Z,17.50
2018-05-23T23:25:06.259Z,17.50
2018-05-23T23:27:34.572Z,17.40
2018-05-23T23:30:02.638Z,17.40
2018-05-23T23:32:30.808Z,17.40
2018-05-23T23:34:59.123Z,17.40
2018-05-23T23:37:27.429Z,17.30
2018-05-23T23:39:55.739Z,17.30
2018-05-23T23:42:24.041Z,17.30
2018-05-23T23:44:52.560Z,17.30
2018-05-23T23:47:20.921Z,17.20
2018-05-23T23:49:49.422Z,17.30
2018-05-23T23:52:17.853Z,17.20
2018-05-23T23:54:46.191Z,17.20
2018-05-23T23:57:15.063Z,17.20
2018-05-23T23:59:43.386Z,17.20
